Terminal Aerodrome Forecast
Issued by NWS Charleston, WV

Current Version | Previous Version | Graphics & Text | Print | Product List | Glossary On
Versions: 1 2 3 4 5 6 7 8 9 10 11 12 13 14 15 16 17 18 19 20 21 22 23 24 25 26 27 28 29 30
000
FTUS41 KRLX 292339
TAFCRW
TAF
KCRW 292339Z 3000/3024 19005KT P6SM VCTS BKN060CB
      TEMPO 3000/3002 3SM TSRA BKN025CB
     FM300400 20004KT 6SM SHRA BR VCTS BKN045CB
     FM300800 22005KT 5SM BR BKN035
     FM301300 22005KT P6SM BKN025
     FM301600 23007KT P6SM BKN035
     FM301700 23007KT P6SM VCTS BKN045CB=

USA.gov is the U.S. government's official web portal to all federal, state and local government web resources and services.